createdAt,value
2022-09-27T00:00:47.371Z,9.77
2022-09-27T00:06:01.666Z,9.78
2022-09-27T00:11:05.814Z,9.78
2022-09-27T00:16:08.535Z,9.75
2022-09-27T00:21:14.461Z,9.75
2022-09-27T00:26:17.227Z,9.76
2022-09-27T00:31:22.227Z,9.73
2022-09-27T00:36:27.535Z,9.71
2022-09-27T00:41:32.580Z,9.67
2022-09-27T00:46:39.752Z,9.64
2022-09-27T00:51:47.032Z,9.63
2022-09-27T00:56:51.411Z,9.64
2022-09-27T01:01:54.382Z,9.58
2022-09-27T01:06:58.489Z,9.55
2022-09-27T01:12:12.097Z,9.56
2022-09-27T01:17:33.589Z,9.50
2022-09-27T01:22:47.414Z,9.50
2022-09-27T01:28:11.807Z,9.49
2022-09-27T01:33:27.221Z,9.44
2022-09-27T01:38:38.443Z,9.43
2022-09-27T01:43:49.865Z,9.38
2022-09-27T01:49:03.228Z,9.34
2022-09-27T01:54:11.251Z,9.31
2022-09-27T01:59:39.202Z,9.26
2022-09-27T02:05:13.665Z,9.22
2022-09-27T02:10:20.510Z,9.18
2022-09-27T02:15:33.622Z,9.13
2022-09-27T02:20:59.816Z,9.08
2022-09-27T02:26:05.002Z,9.03
2022-09-27T02:31:07.891Z,8.95
2022-09-27T02:36:13.789Z,8.91
2022-09-27T02:41:17.534Z,8.90
2022-09-27T02:46:42.884Z,8.86
2022-09-27T02:52:01.113Z,8.83
2022-09-27T02:57:14.369Z,8.78
2022-09-27T03:02:45.716Z,8.72
2022-09-27T03:08:08.998Z,8.66
2022-09-27T03:13:12.964Z,8.62
2022-09-27T03:18:16.397Z,8.60
2022-09-27T03:23:52.599Z,8.55
2022-09-27T03:28:55.417Z,8.54
2022-09-27T03:33:58.191Z,8.53
2022-09-27T03:39:02.651Z,8.55
2022-09-27T03:44:05.476Z,8.52
2022-09-27T03:49:08.423Z,8.50
2022-09-27T03:54:12.621Z,8.50
2022-09-27T03:59:15.485Z,8.48
2022-09-27T04:04:41.023Z,8.44
2022-09-27T04:09:46.824Z,8.45
2022-09-27T04:14:49.525Z,8.43
2022-09-27T04:20:12.688Z,8.39
2022-09-27T04:25:19.959Z,8.39
2022-09-27T04:30:47.549Z,8.38
2022-09-27T04:36:29.397Z,8.36
2022-09-27T04:41:38.531Z,8.36
2022-09-27T04:46:41.586Z,8.35
2022-09-27T04:51:44.513Z,8.35
2022-09-27T04:56:49.608Z,8.36
2022-09-27T05:01:52.470Z,8.37
2022-09-27T05:07:28.681Z,8.35
2022-09-27T05:12:39.207Z,8.36
2022-09-27T05:17:42.011Z,8.34
2022-09-27T05:23:04.434Z,8.31
2022-09-27T05:28:09.441Z,8.29
2022-09-27T05:33:13.240Z,8.29
2022-09-27T05:38:27.239Z,8.30
2022-09-27T05:43:34.638Z,8.29
2022-09-27T05:48:38.272Z,8.30
2022-09-27T05:53:43.497Z,8.31
2022-09-27T05:58:56.019Z,8.30
2022-09-27T06:03:59.366Z,8.32
2022-09-27T06:09:41.791Z,8.30
2022-09-27T06:14:46.064Z,8.30
2022-09-27T06:19:53.790Z,8.31
2022-09-27T06:24:56.581Z,8.32
2022-09-27T06:30:04.488Z,8.32
2022-09-27T06:35:24.946Z,8.38
2022-09-27T06:40:28.595Z,8.46
2022-09-27T06:45:56.370Z,8.57
2022-09-27T06:51:18.847Z,8.71
2022-09-27T06:56:23.282Z,8.83
2022-09-27T07:01:31.608Z,8.83
2022-09-27T07:06:50.301Z,9.07
2022-09-27T07:11:58.336Z,9.29
2022-09-27T07:17:03.505Z,9.39
2022-09-27T07:22:14.908Z,9.44
2022-09-27T07:27:22.137Z,9.90
2022-09-27T07:32:26.386Z,10.22
2022-09-27T07:37:34.567Z,10.48
2022-09-27T07:42:39.181Z,10.25
2022-09-27T07:47:43.515Z,10.32
2022-09-27T07:52:53.335Z,10.29
2022-09-27T07:58:14.914Z,10.63
2022-09-27T08:03:21.624Z,10.83
2022-09-27T08:08:25.345Z,10.95
2022-09-27T08:13:53.885Z,10.75
2022-09-27T08:19:02.864Z,10.76
2022-09-27T08:24:20.379Z,10.48
2022-09-27T08:29:41.646Z,10.43
2022-09-27T08:34:46.564Z,10.48
2022-09-27T08:39:49.583Z,10.54
2022-09-27T08:45:03.665Z,10.96
2022-09-27T08:50:26.389Z,10.98
2022-09-27T08:55:33.378Z,10.94
2022-09-27T09:00:36.504Z,11.02
2022-09-27T09:05:41.392Z,10.96
2022-09-27T09:11:11.919Z,11.16
2022-09-27T09:16:30.506Z,11.10
2022-09-27T09:22:07.483Z,11.12
2022-09-27T09:27:20.512Z,11.03
2022-09-27T09:32:39.092Z,11.13
2022-09-27T09:37:48.424Z,11.52
2022-09-27T09:42:58.286Z,11.63
2022-09-27T09:48:10.077Z,11.38
2022-09-27T09:53:19.302Z,11.16
2022-09-27T09:58:27.487Z,11.08
2022-09-27T10:03:36.438Z,11.08
2022-09-27T10:08:41.432Z,11.03
2022-09-27T10:14:12.501Z,11.56
2022-09-27T10:19:19.538Z,12.25
2022-09-27T10:24:25.594Z,12.41
2022-09-27T10:29:44.572Z,12.56
2022-09-27T10:34:53.905Z,12.24
2022-09-27T10:40:00.506Z,12.14
2022-09-27T10:45:23.645Z,12.16
2022-09-27T10:50:50.263Z,11.79
2022-09-27T10:56:03.500Z,11.64
2022-09-27T11:01:09.726Z,11.66
2022-09-27T11:06:32.069Z,11.68
2022-09-27T11:11:37.506Z,11.71
2022-09-27T11:16:51.858Z,11.61
2022-09-27T11:22:02.604Z,11.64
2022-09-27T11:27:24.093Z,11.85
2022-09-27T11:32:36.511Z,12.28
2022-09-27T11:37:49.446Z,12.37
2022-09-27T11:43:28.506Z,12.88
2022-09-27T11:48:50.381Z,12.58
2022-09-27T11:54:06.763Z,12.43
2022-09-27T11:59:38.355Z,12.80
2022-09-27T12:05:01.987Z,13.12
2022-09-27T12:10:13.784Z,13.38
2022-09-27T12:15:22.195Z,13.60
2022-09-27T12:20:31.082Z,13.80
2022-09-27T12:25:40.107Z,13.93
2022-09-27T12:31:28.012Z,14.19
2022-09-27T12:36:38.799Z,14.23
2022-09-27T12:41:49.180Z,14.76
2022-09-27T12:47:21.535Z,14.79
2022-09-27T12:52:31.583Z,14.62
2022-09-27T12:57:47.652Z,14.08
2022-09-27T13:03:26.284Z,14.14
2022-09-27T13:08:57.950Z,14.05
2022-09-27T13:14:29.586Z,13.52
2022-09-27T13:19:43.286Z,13.19
2022-09-27T13:24:50.977Z,13.07
2022-09-27T13:30:49.034Z,12.92
2022-09-27T13:36:17.469Z,13.07
2022-09-27T13:41:23.597Z,13.21
2022-09-27T13:46:35.411Z,13.41
2022-09-27T13:51:44.546Z,13.53
2022-09-27T13:56:53.415Z,13.62
2022-09-27T14:02:12.687Z,13.40
2022-09-27T14:07:20.663Z,13.34
2022-09-27T14:12:33.097Z,13.42
2022-09-27T14:17:45.685Z,13.01
2022-09-27T14:22:56.649Z,12.78
2022-09-27T14:28:04.027Z,12.33
2022-09-27T14:33:29.801Z,12.18
2022-09-27T14:38:38.455Z,12.40
2022-09-27T14:43:56.247Z,12.49
2022-09-27T14:48:59.692Z,12.45
2022-09-27T14:54:05.585Z,12.15
2022-09-27T14:59:14.040Z,12.22
2022-09-27T15:04:17.484Z,12.06
2022-09-27T15:09:23.261Z,11.85
2022-09-27T15:14:28.106Z,11.77
2022-09-27T15:19:31.031Z,12.79
2022-09-27T15:30:20.129Z,12.55
2022-09-27T15:35:33.294Z,11.84
2022-09-27T15:41:05.938Z,11.13
2022-09-27T15:46:30.226Z,10.53
2022-09-27T15:51:40.626Z,10.32
2022-09-27T15:56:44.918Z,10.04
2022-09-27T16:01:48.171Z,9.90
2022-09-27T16:06:51.408Z,9.83
2022-09-27T16:11:55.583Z,9.84
2022-09-27T16:16:59.988Z,9.78
2022-09-27T16:22:03.628Z,9.68
2022-09-27T16:27:07.761Z,9.74
2022-09-27T16:32:11.036Z,9.68
2022-09-27T16:37:21.773Z,9.77
2022-09-27T16:42:27.324Z,9.71
2022-09-27T16:47:30.397Z,9.67
2022-09-27T16:52:33.863Z,9.67
2022-09-27T16:57:38.220Z,9.58
2022-09-27T17:02:41.411Z,9.50
2022-09-27T17:07:44.492Z,9.44
2022-09-27T17:12:49.020Z,9.30
2022-09-27T17:17:51.953Z,9.21
2022-09-27T17:22:54.741Z,9.11
2022-09-27T17:27:59.291Z,9.08
2022-09-27T17:33:02.021Z,8.95
2022-09-27T17:38:05.445Z,8.89
2022-09-27T17:43:09.482Z,8.83
2022-09-27T17:48:38.835Z,8.83
2022-09-27T17:53:42.787Z,8.82
2022-09-27T17:58:50.979Z,8.73
2022-09-27T18:03:55.695Z,8.68
2022-09-27T18:08:58.750Z,8.63
2022-09-27T18:14:03.492Z,8.60
2022-09-27T18:19:08.138Z,8.55
2022-09-27T18:24:11.632Z,8.53
2022-09-27T18:29:19.171Z,8.49
2022-09-27T18:34:25.160Z,8.45
2022-09-27T18:39:28.106Z,8.43
2022-09-27T18:44:32.962Z,8.38
2022-09-27T18:49:35.762Z,8.37
2022-09-27T18:54:40.890Z,8.26
2022-09-27T18:59:48.064Z,8.29
2022-09-27T19:04:51.204Z,8.23
2022-09-27T19:09:53.887Z,8.27
2022-09-27T19:14:57.932Z,8.25
2022-09-27T19:20:00.903Z,8.21
2022-09-27T19:25:03.632Z,8.19
2022-09-27T19:30:08.787Z,8.24
2022-09-27T19:35:12.335Z,8.17
2022-09-27T19:40:15.358Z,8.18
2022-09-27T19:45:20.891Z,8.17
2022-09-27T19:50:25.083Z,8.13
2022-09-27T19:55:27.779Z,8.15
2022-09-27T20:00:36.055Z,8.20
2022-09-27T20:05:38.806Z,8.18
2022-09-27T20:10:42.303Z,8.18
2022-09-27T20:15:47.421Z,8.16
2022-09-27T20:20:50.215Z,8.14
2022-09-27T20:25:53.239Z,8.12
2022-09-27T20:31:02.731Z,8.11
2022-09-27T20:36:05.923Z,8.15
2022-09-27T20:41:09.257Z,8.11
2022-09-27T20:46:15.537Z,8.11
2022-09-27T20:51:18.366Z,8.13
2022-09-27T20:56:23.421Z,8.14
2022-09-27T21:01:29.037Z,8.11
2022-09-27T21:06:35.544Z,8.15
2022-09-27T21:11:38.605Z,8.19
2022-09-27T21:16:42.902Z,8.16
2022-09-27T21:21:45.702Z,8.16
2022-09-27T21:26:48.472Z,8.10
2022-09-27T21:31:52.633Z,8.11
2022-09-27T21:36:55.447Z,8.03
2022-09-27T21:41:58.361Z,7.97
2022-09-27T21:47:02.546Z,7.99
2022-09-27T21:52:05.521Z,7.97
2022-09-27T21:57:08.564Z,7.95
2022-09-27T22:02:12.730Z,7.90
2022-09-27T22:07:15.483Z,7.87
2022-09-27T22:12:18.196Z,7.84
2022-09-27T22:17:23.010Z,7.79
2022-09-27T22:22:26.308Z,7.85
2022-09-27T22:27:29.354Z,7.84
2022-09-27T22:32:33.479Z,7.83
2022-09-27T22:37:37.203Z,7.82
2022-09-27T22:42:39.895Z,7.89
2022-09-27T22:47:43.982Z,7.87
2022-09-27T22:52:46.758Z,7.85
2022-09-27T22:57:49.487Z,7.89
2022-09-27T23:02:56.781Z,7.90
2022-09-27T23:07:59.484Z,7.95
2022-09-27T23:13:02.367Z,7.91
2022-09-27T23:18:07.025Z,7.88
2022-09-27T23:23:14.374Z,7.90
2022-09-27T23:28:16.936Z,7.80
2022-09-27T23:33:21.956Z,7.83
2022-09-27T23:38:24.673Z,7.81
2022-09-27T23:43:28.243Z,7.80
2022-09-27T23:48:33.925Z,7.81
2022-09-27T23:53:37.396Z,7.81
2022-09-27T23:58:42.391Z,7.82
